Time;durP1;ratioP1;P1;durP2;ratioP2;P2;SDS_P1;SDS_P2;PMS_P1;PMS_P2;Temp;Humidity;BMP_temperature;BMP_pressure;BME280_temperature;BME280_humidity;BME280_pressure;Samples;Min_cycle;Max_cycle;Signal;HPM_P1;HPM_P2
2021/12/18 00:04:08;;;;;;;5.80;3.10;;;;;;;2.62;79.84;100289.31;213701;1324;23135;-72
2021/12/18 00:09:10;;;;;;;9.90;3.80;;;;;;;2.64;79.87;100288.79;213794;1321;22992;-71
2021/12/18 00:14:24;;;;;;;6.10;3.80;;;;;;;2.64;79.72;100294.86;213770;1322;24324;-71
2021/12/18 00:20:27;;;;;;;;;;;;;;;;;;;;;
2021/12/18 00:25:49;;;;;;;7.80;3.30;;;;;;;2.63;79.62;100299.62;213531;1323;23237;-71
2021/12/18 00:30:58;;;;;;;6.90;3.20;;;;;;;2.62;79.48;100301.33;213520;1324;25457;-71
2021/12/18 00:36:00;;;;;;;8.20;3.20;;;;;;;2.61;79.57;100308.31;213349;1323;23333;-72
2021/12/18 00:46:46;;;;;;;10.50;3.50;;;;;;;2.55;79.63;100307.96;212699;1322;22564;-72
2021/12/18 00:51:55;;;;;;;8.00;3.50;;;;;;;2.51;79.51;100312.71;213367;1324;22603;-71
2021/12/18 00:57:17;;;;;;;9.40;4.10;;;;;;;2.48;79.57;100315.27;213516;1318;22570;-71
2021/12/18 01:02:19;;;;;;;8.80;3.90;;;;;;;2.44;79.61;100314.45;212957;1325;24526;-71
2021/12/18 01:07:22;;;;;;;9.60;4.10;;;;;;;2.42;79.74;100320.45;212995;1320;22671;-71
2021/12/18 01:12:39;;;;;;;6.60;3.60;;;;;;;2.41;79.70;100334.16;212878;1322;22731;-72
2021/12/18 01:23:18;;;;;;;8.80;4.20;;;;;;;2.39;79.83;100343.03;213280;1325;24255;-71
2021/12/18 01:28:51;;;;;;;10.00;4.10;;;;;;;2.38;79.84;100333.14;213217;1321;24582;-71
2021/12/18 01:35:04;;;;;;;7.80;4.10;;;;;;;2.39;79.84;100326.70;212619;1328;22593;-72
2021/12/18 01:40:11;;;;;;;11.20;4.40;;;;;;;2.34;79.97;100312.77;213163;1324;22643;-71
2021/12/18 01:55:55;;;;;;;8.90;4.40;;;;;;;2.22;79.81;100337.24;213524;1317;22664;-71
2021/12/18 02:01:07;;;;;;;10.50;4.00;;;;;;;2.17;79.72;100339.69;213291;1319;22652;-72
2021/12/18 02:06:13;;;;;;;8.20;4.20;;;;;;;2.11;79.89;100342.02;213406;1316;22629;-72
2021/12/18 02:22:11;;;;;;;7.50;3.90;;;;;;;2.02;80.06;100324.02;213233;1319;22593;-72
2021/12/18 02:27:41;;;;;;;;;;;;;;;;;;;;;
2021/12/18 02:32:47;;;;;;;7.30;3.70;;;;;;;1.96;80.04;100324.67;213831;1322;22686;-71
2021/12/18 02:38:01;;;;;;;7.20;3.30;;;;;;;1.93;80.22;100332.26;213363;1318;22650;-72
2021/12/18 02:43:42;;;;;;;9.50;3.90;;;;;;;1.90;80.30;100329.35;213764;1319;22586;-72
2021/12/18 02:49:31;;;;;;;7.40;3.60;;;;;;;1.85;80.13;100333.02;213399;1325;22623;-71
2021/12/18 02:54:42;;;;;;;6.60;3.10;;;;;;;1.84;80.31;100331.99;213205;1322;22661;-70
2021/12/18 02:59:48;;;;;;;6.90;3.50;;;;;;;1.81;80.44;100331.57;213182;1321;22634;-71
2021/12/18 03:04:55;;;;;;;7.50;3.30;;;;;;;1.79;80.35;100343.52;213339;1324;22721;-71
2021/12/18 03:26:02;;;;;;;8.20;3.70;;;;;;;1.77;80.59;100325.80;213102;1322;22542;-70
2021/12/18 03:31:08;;;;;;;8.20;3.30;;;;;;;1.77;80.54;100348.33;213567;1324;22680;-70
2021/12/18 03:36:10;;;;;;;7.70;3.80;;;;;;;1.76;80.60;100344.30;213657;1318;22638;-72
2021/12/18 03:41:24;;;;;;;8.40;3.40;;;;;;;1.76;80.56;100342.34;213751;1317;22771;-72
2021/12/18 03:46:39;;;;;;;9.30;3.70;;;;;;;1.77;80.76;100344.34;213668;1324;22695;-72
2021/12/18 03:52:25;;;;;;;7.50;3.50;;;;;;;1.76;80.61;100347.78;213379;1322;22662;-71
2021/12/18 03:57:54;;;;;;;5.60;3.30;;;;;;;1.79;80.67;100346.70;213748;1321;25368;-71
2021/12/18 04:02:59;;;;;;;6.60;3.20;;;;;;;1.81;80.54;100333.10;213568;1322;23122;-72
2021/12/18 04:08:08;;;;;;;9.50;3.90;;;;;;;1.83;80.48;100344.82;213700;1324;22526;-70
2021/12/18 04:13:11;;;;;;;6.40;3.50;;;;;;;1.82;80.58;100338.16;213504;1323;25413;-71
2021/12/18 04:18:13;;;;;;;7.60;3.70;;;;;;;1.79;80.41;100331.92;213357;1322;25645;-71
2021/12/18 04:23:18;;;;;;;10.90;3.60;;;;;;;1.78;80.47;100349.52;213701;1323;25330;-71
2021/12/18 04:29:01;;;;;;;8.10;4.00;;;;;;;1.79;80.66;100344.36;213921;1321;23180;-72
2021/12/18 04:34:54;;;;;;;6.10;3.70;;;;;;;1.84;80.79;100344.88;213787;1323;22705;-72
2021/12/18 04:41:10;;;;;;;7.30;3.10;;;;;;;1.83;80.48;100349.66;213709;1319;22720;-71
2021/12/18 04:47:15;;;;;;;9.70;3.70;;;;;;;1.84;80.54;100340.09;213919;1323;22594;-72
2021/12/18 04:52:18;;;;;;;7.20;3.20;;;;;;;1.82;80.44;100335.95;213675;1320;22654;-72
2021/12/18 04:57:29;;;;;;;5.10;3.20;;;;;;;1.81;80.42;100327.98;213897;1316;22599;-72
2021/12/18 05:02:58;;;;;;;7.60;3.30;;;;;;;1.83;80.35;100332.27;213950;1320;24692;-73
2021/12/18 05:08:05;;;;;;;6.00;2.90;;;;;;;1.85;80.53;100333.41;213280;1323;24302;-70
2021/12/18 05:13:11;;;;;;;6.60;3.20;;;;;;;1.84;80.24;100334.11;212836;1320;22584;-73
2021/12/18 05:18:26;;;;;;;6.20;3.40;;;;;;;1.81;80.27;100323.19;213883;1323;22648;-71
2021/12/18 05:23:34;;;;;;;5.50;3.30;;;;;;;1.79;80.26;100324.20;213622;1316;22584;-71
2021/12/18 05:28:38;;;;;;;9.20;4.00;;;;;;;1.79;80.22;100332.61;213829;1316;22581;-72
2021/12/18 05:33:46;;;;;;;11.10;4.50;;;;;;;1.78;80.29;100327.96;213802;1323;23063;-72
2021/12/18 05:38:49;;;;;;;9.20;4.10;;;;;;;1.77;80.44;100329.70;213420;1323;299136;-72
2021/12/18 05:44:04;;;;;;;8.50;4.10;;;;;;;1.77;80.42;100343.65;213419;1323;22835;-72
2021/12/18 05:49:07;;;;;;;6.70;4.10;;;;;;;1.76;80.34;100348.64;213679;1322;23828;-70
2021/12/18 05:54:13;;;;;;;12.10;4.50;;;;;;;1.76;80.32;100348.67;213776;1320;23988;-71
2021/12/18 05:59:36;;;;;;;13.50;5.10;;;;;;;1.74;80.22;100339.56;213756;1323;25455;-72
2021/12/18 06:04:39;;;;;;;11.10;4.50;;;;;;;1.73;80.46;100341.79;213513;1323;24324;-72
2021/12/18 06:09:51;;;;;;;8.50;3.90;;;;;;;1.73;80.51;100345.55;213630;1323;22586;-72
2021/12/18 06:14:56;;;;;;;11.50;4.90;;;;;;;1.71;80.39;100347.54;214135;1318;24311;-71
2021/12/18 06:20:06;;;;;;;11.00;5.30;;;;;;;1.70;80.39;100349.20;214061;1320;24270;-70
2021/12/18 06:25:22;;;;;;;8.40;4.40;;;;;;;1.71;80.51;100342.38;213831;1320;22602;-71
2021/12/18 06:30:28;;;;;;;8.60;4.00;;;;;;;1.72;80.30;100336.33;213450;1315;22781;-71
2021/12/18 06:35:48;;;;;;;5.60;4.00;;;;;;;1.70;80.32;100341.60;213542;1323;22583;-71
2021/12/18 06:40:54;;;;;;;7.70;3.90;;;;;;;1.70;80.51;100356.94;213586;1322;23067;-72
2021/12/18 06:45:57;;;;;;;13.50;6.10;;;;;;;1.72;80.51;100365.32;213484;1320;22617;-71
2021/12/18 06:51:03;;;;;;;8.50;4.60;;;;;;;1.76;80.28;100367.91;213693;1323;24327;-71
2021/12/18 06:56:09;;;;;;;7.90;4.40;;;;;;;1.78;80.00;100371.02;213862;1315;22741;-71
2021/12/18 07:01:39;;;;;;;8.30;4.30;;;;;;;1.81;80.18;100376.16;214147;1316;22564;-72
2021/12/18 07:06:46;;;;;;;9.70;3.80;;;;;;;1.85;80.06;100373.95;213788;1323;22725;-71
2021/12/18 07:11:48;;;;;;;10.40;4.90;;;;;;;1.85;79.82;100371.67;213582;1324;23065;-72
2021/12/18 07:16:51;;;;;;;9.60;4.70;;;;;;;1.87;79.70;100369.70;213842;1319;23253;-71
2021/12/18 07:21:58;;;;;;;9.60;4.50;;;;;;;1.88;79.81;100370.41;213929;1323;22603;-71
2021/12/18 07:27:04;;;;;;;7.80;4.10;;;;;;;1.90;79.63;100364.77;214656;1315;22647;-71
2021/12/18 07:32:19;;;;;;;7.50;3.30;;;;;;;1.93;79.68;100355.03;213975;1317;25395;-71
2021/12/18 07:37:38;;;;;;;9.70;3.60;;;;;;;1.97;79.29;100346.80;213757;1325;22587;-71
2021/12/18 07:42:54;;;;;;;8.80;4.00;;;;;;;2.01;79.28;100340.65;213817;1323;22588;-72
2021/12/18 07:48:03;;;;;;;7.20;4.10;;;;;;;2.04;79.08;100336.36;213693;1322;22588;-70
2021/12/18 07:53:06;;;;;;;8.70;4.00;;;;;;;2.06;79.03;100336.09;213827;1322;25322;-72
2021/12/18 07:58:08;;;;;;;6.60;3.80;;;;;;;2.09;78.75;100333.09;213715;1321;22609;-70
2021/12/18 08:03:13;;;;;;;8.30;4.10;;;;;;;2.14;78.84;100336.91;214005;1317;22752;-71
2021/12/18 08:08:16;;;;;;;10.50;4.50;;;;;;;2.15;78.77;100347.80;214014;1316;22672;-71
2021/12/18 08:13:34;;;;;;;12.80;5.20;;;;;;;2.15;78.71;100351.02;214063;1316;22595;-72
2021/12/18 08:18:50;;;;;;;11.40;5.00;;;;;;;2.15;78.56;100346.14;214059;1315;22599;-72
2021/12/18 08:24:10;;;;;;;9.40;4.20;;;;;;;2.21;78.73;100345.48;213748;1316;25249;-71
2021/12/18 08:29:26;;;;;;;10.60;5.20;;;;;;;2.30;78.77;100341.23;213690;1320;23319;-71
2021/12/18 08:35:02;;;;;;;11.50;6.00;;;;;;;2.36;78.71;100335.44;213320;1323;22599;-71
2021/12/18 08:40:07;;;;;;;11.70;5.80;;;;;;;2.48;78.61;100338.23;213599;1316;22800;-72
2021/12/18 08:45:26;;;;;;;11.40;5.50;;;;;;;2.60;78.62;100334.13;213999;1316;25395;-72
2021/12/18 08:50:49;;;;;;;14.90;6.60;;;;;;;2.68;78.21;100330.33;213767;1316;24297;-71
2021/12/18 08:55:56;;;;;;;10.90;5.60;;;;;;;2.69;77.95;100330.20;213655;1323;22571;-71
2021/12/18 09:01:02;;;;;;;11.10;6.60;;;;;;;2.68;77.86;100328.29;213600;1316;22513;-70
2021/12/18 09:06:07;;;;;;;13.40;6.40;;;;;;;2.66;77.94;100327.42;213219;1319;22664;-70
2021/12/18 09:11:22;;;;;;;16.70;7.50;;;;;;;2.70;78.14;100317.19;213456;1316;22602;-71
2021/12/18 09:16:45;;;;;;;14.40;6.80;;;;;;;2.73;77.79;100309.98;213576;1321;24388;-71
2021/12/18 09:22:08;;;;;;;;;;;;;;;;;;;;;
2021/12/18 09:28:14;;;;;;;12.10;5.90;;;;;;;2.70;77.57;100308.10;212253;1318;24261;-70
2021/12/18 09:33:18;;;;;;;10.00;5.80;;;;;;;2.64;77.30;100302.86;213626;1316;25271;-70
2021/12/18 09:38:20;;;;;;;10.30;5.80;;;;;;;2.58;77.35;100298.13;213570;1318;22598;-70
2021/12/18 09:43:24;;;;;;;9.90;6.00;;;;;;;2.57;77.53;100298.65;213733;1316;25268;-69
2021/12/18 09:48:27;;;;;;;12.70;6.90;;;;;;;2.63;77.67;100310.20;212153;1319;24667;-70
2021/12/18 09:53:29;;;;;;;12.70;6.70;;;;;;;2.66;77.61;100306.06;212093;1316;25255;-71
2021/12/18 09:58:33;;;;;;;13.40;5.90;;;;;;;2.73;77.67;100293.05;214296;1317;22586;-69
2021/12/18 10:03:57;;;;;;;10.70;5.70;;;;;;;2.79;77.52;100289.79;217747;1318;24150;-69
2021/12/18 10:09:12;;;;;;;11.20;6.70;;;;;;;2.83;77.43;100283.06;211735;1318;25349;-70
2021/12/18 10:14:21;;;;;;;10.80;5.90;;;;;;;2.84;77.36;100282.05;211582;1325;22664;-70
2021/12/18 10:19:35;;;;;;;9.00;5.30;;;;;;;2.85;77.45;100279.11;214115;1319;23235;-69
2021/12/18 10:24:40;;;;;;;10.40;6.20;;;;;;;2.83;77.33;100278.27;216224;1316;25432;-70
2021/12/18 10:29:42;;;;;;;12.10;5.70;;;;;;;2.84;77.37;100285.06;212518;1316;22620;-70
2021/12/18 10:35:01;;;;;;;10.40;6.70;;;;;;;2.87;77.61;100280.95;212015;1316;24622;-70
2021/12/18 10:40:08;;;;;;;11.30;6.50;;;;;;;2.90;77.46;100269.11;211992;1318;25262;-71
2021/12/18 10:45:17;;;;;;;11.20;6.50;;;;;;;2.89;77.42;100250.86;214725;1323;22632;-69
2021/12/18 10:50:42;;;;;;;10.50;6.40;;;;;;;2.91;77.64;100236.66;214286;1317;22679;-70
2021/12/18 10:55:53;;;;;;;11.40;5.50;;;;;;;2.96;77.66;100228.48;214672;1315;24121;-71
2021/12/18 11:01:14;;;;;;;11.80;6.50;;;;;;;2.99;77.54;100225.63;214096;1320;22655;-71
2021/12/18 11:06:18;;;;;;;10.60;5.70;;;;;;;2.99;77.65;100221.92;214416;1316;22617;-70
2021/12/18 11:16:52;;;;;;;11.20;6.70;;;;;;;3.03;77.74;100211.83;214393;1316;24336;-71
2021/12/18 11:22:22;;;;;;;10.40;6.50;;;;;;;3.06;77.71;100212.07;214624;1315;24340;-70
2021/12/18 11:27:32;;;;;;;11.50;6.90;;;;;;;3.12;77.83;100198.34;214389;1316;24772;-71
2021/12/18 11:32:44;;;;;;;10.70;6.40;;;;;;;3.14;77.61;100194.98;214616;1316;24362;-71
2021/12/18 11:38:15;;;;;;;11.70;6.70;;;;;;;3.13;77.68;100183.50;214287;1316;24548;-71
2021/12/18 11:43:39;;;;;;;13.40;6.60;;;;;;;3.13;77.88;100178.17;213912;1319;22659;-71
2021/12/18 11:49:01;;;;;;;11.70;6.50;;;;;;;3.16;77.82;100173.45;214131;1315;22657;-70
2021/12/18 11:54:40;;;;;;;12.50;6.60;;;;;;;3.14;77.85;100168.08;214462;1315;22565;-71
2021/12/18 11:59:44;;;;;;;12.20;7.10;;;;;;;3.17;78.02;100151.57;214171;1316;22620;-71
2021/12/18 12:05:19;;;;;;;11.60;7.50;;;;;;;3.26;78.04;100154.48;214323;1315;22822;-71
2021/12/18 12:11:16;;;;;;;14.20;7.70;;;;;;;3.30;78.07;100152.16;213394;1318;22687;-70
2021/12/18 12:16:39;;;;;;;12.60;6.70;;;;;;;3.35;78.15;100136.38;213905;1316;22616;-71
2021/12/18 12:21:50;;;;;;;13.90;8.00;;;;;;;3.39;78.11;100120.55;213688;1316;23178;-71
2021/12/18 12:26:54;;;;;;;15.50;9.30;;;;;;;3.41;78.19;100112.11;213744;1316;22668;-73
2021/12/18 12:32:06;;;;;;;12.80;7.90;;;;;;;3.44;78.24;100109.61;213456;1318;23401;-70
2021/12/18 12:37:23;;;;;;;12.60;7.30;;;;;;;3.46;78.19;100097.59;213687;1317;22586;-71
2021/12/18 12:42:42;;;;;;;13.80;7.70;;;;;;;3.52;78.33;100082.38;213716;1315;23320;-71
2021/12/18 12:48:01;;;;;;;17.20;8.10;;;;;;;3.59;78.19;100081.20;213626;1315;25323;-70
2021/12/18 12:53:57;;;;;;;12.60;7.80;;;;;;;3.60;78.07;100080.46;213692;1315;23851;-71
2021/12/18 12:59:25;;;;;;;11.20;7.70;;;;;;;3.59;77.98;100076.48;213763;1316;24209;-72
2021/12/18 13:04:27;;;;;;;13.50;8.60;;;;;;;3.49;77.88;100069.98;213522;1315;22573;-70
2021/12/18 13:09:35;;;;;;;13.50;9.20;;;;;;;3.38;77.83;100065.17;213543;1315;24279;-72
2021/12/18 13:14:43;;;;;;;17.00;11.40;;;;;;;3.35;78.23;100057.00;213575;1319;24435;-71
2021/12/18 13:19:59;;;;;;;16.30;10.00;;;;;;;3.31;78.38;100056.98;213942;1321;22603;-71
2021/12/18 13:25:12;;;;;;;21.40;11.80;;;;;;;3.34;78.69;100055.54;213465;1320;23403;-71
2021/12/18 13:30:21;;;;;;;23.70;13.40;;;;;;;3.36;78.53;100054.95;213778;1323;22657;-71
2021/12/18 13:35:28;;;;;;;21.40;14.20;;;;;;;3.37;78.40;100054.10;213704;1320;24402;-72
2021/12/18 13:40:55;;;;;;;17.80;11.50;;;;;;;3.30;78.50;100050.58;212526;1322;324281;-71
2021/12/18 13:52:53;;;;;;;20.50;10.70;;;;;;;3.19;78.93;100040.09;211833;1323;25450;-71
2021/12/18 13:58:59;;;;;;;18.80;10.30;;;;;;;3.08;78.88;100037.94;212335;1323;22632;-72
2021/12/18 14:04:52;;;;;;;14.00;8.30;;;;;;;2.99;79.16;100029.20;213014;1322;22675;-71
2021/12/18 14:10:40;;;;;;;18.20;10.60;;;;;;;3.01;79.42;100019.63;212407;1324;25348;-72
2021/12/18 14:15:45;;;;;;;17.10;9.60;;;;;;;2.98;79.47;100018.37;213694;1324;25267;-71
2021/12/18 14:20:58;;;;;;;14.00;8.60;;;;;;;2.94;79.59;100020.45;213449;1323;22596;-71
2021/12/18 14:26:24;;;;;;;16.70;8.90;;;;;;;2.87;79.73;100017.70;213636;1319;22806;-70
2021/12/18 14:31:33;;;;;;;13.80;7.60;;;;;;;2.83;79.94;100020.27;212411;1323;24251;-71
2021/12/18 14:36:41;;;;;;;14.50;8.10;;;;;;;2.82;80.12;100019.86;212545;1320;25429;-71
2021/12/18 14:42:02;;;;;;;14.00;8.00;;;;;;;2.83;80.22;100022.27;213549;1323;24443;-71
2021/12/18 14:47:24;;;;;;;15.30;8.90;;;;;;;2.85;80.35;100023.64;213761;1323;22657;-70
2021/12/18 14:52:28;;;;;;;14.50;9.10;;;;;;;2.87;80.35;100025.27;213922;1323;22634;-72
2021/12/18 14:57:33;;;;;;;17.20;9.50;;;;;;;2.86;80.31;100015.91;213614;1318;24532;-71
2021/12/18 15:03:01;;;;;;;15.30;8.50;;;;;;;2.88;80.46;100010.36;213833;1319;24478;-70
2021/12/18 15:08:06;;;;;;;16.50;9.80;;;;;;;2.89;80.44;99998.83;213613;1323;22813;-71
2021/12/18 15:13:17;;;;;;;18.50;10.90;;;;;;;2.87;80.43;99991.35;213315;1323;22586;-71
2021/12/18 15:18:21;;;;;;;23.60;11.50;;;;;;;2.85;80.41;99997.66;213812;1323;22574;-71
2021/12/18 15:23:24;;;;;;;21.50;12.00;;;;;;;2.85;80.50;99983.41;213697;1323;22623;-71
2021/12/18 15:28:36;;;;;;;20.00;10.10;;;;;;;2.83;80.45;99969.38;213682;1323;22669;-73
2021/12/18 15:33:39;;;;;;;17.40;10.20;;;;;;;2.82;80.39;99972.23;213811;1323;22592;-71
2021/12/18 15:38:42;;;;;;;18.60;10.20;;;;;;;2.78;80.36;99973.20;213702;1323;22607;-71
2021/12/18 15:43:45;;;;;;;19.00;11.20;;;;;;;2.76;80.47;99958.89;213791;1323;23045;-71
2021/12/18 15:48:48;;;;;;;21.40;11.80;;;;;;;2.75;80.51;99957.09;213574;1323;22689;-71
2021/12/18 15:53:51;;;;;;;23.80;12.20;;;;;;;2.75;80.54;99952.09;213396;1325;23154;-72
2021/12/18 15:59:06;;;;;;;19.40;11.00;;;;;;;2.76;80.59;99947.94;213402;1318;24603;-71
2021/12/18 16:04:10;;;;;;;21.50;11.20;;;;;;;2.77;80.37;99950.65;213719;1323;22675;-72
2021/12/18 16:09:13;;;;;;;26.10;11.80;;;;;;;2.75;80.34;99944.03;213859;1323;22740;-70
2021/12/18 16:14:26;;;;;;;20.60;11.50;;;;;;;2.74;80.30;99938.05;213986;1322;23146;-71
2021/12/18 16:19:35;;;;;;;23.90;13.10;;;;;;;2.76;80.17;99937.23;213986;1323;22659;-71
2021/12/18 16:24:40;;;;;;;26.50;12.90;;;;;;;2.78;80.36;99928.63;213460;1319;23100;-70
2021/12/18 16:29:43;;;;;;;26.60;13.80;;;;;;;2.77;80.24;99910.96;213316;1324;24467;-72
2021/12/18 16:34:45;;;;;;;25.50;13.80;;;;;;;2.75;80.29;99899.90;213471;1323;22609;-71
2021/12/18 16:39:49;;;;;;;24.80;13.50;;;;;;;2.74;80.25;99893.63;213533;1323;22743;-71
2021/12/18 16:44:56;;;;;;;20.90;12.70;;;;;;;2.73;80.33;99887.89;213496;1323;25432;-70
2021/12/18 16:50:22;;;;;;;;;;;;;;;2.76;80.34;99884.09;213488;1323;22659;-70
2021/12/18 16:55:40;;;;;;;;;;;;;;;2.77;80.48;99875.84;213265;1324;22627;-71
2021/12/18 17:00:50;;;;;;;;;;;;;;;2.77;80.24;99872.09;213524;1323;22569;-71
2021/12/18 17:06:35;;;;;;;;;;;;;;;2.77;80.28;99867.37;213541;1323;25371;-72
2021/12/18 17:11:40;;;;;;;;;;;;;;;2.77;80.19;99860.29;213240;1324;22606;-72
2021/12/18 17:16:42;;;;;;;;;;;;;;;2.79;80.41;99849.48;213740;1322;24061;-71
2021/12/18 17:21:47;;;;;;;;;;;;;;;2.81;80.33;99841.02;213757;1323;25413;-71
2021/12/18 17:26:49;;;;;;;;;;;;;;;2.83;80.37;99834.77;213834;1322;24677;-71
2021/12/18 17:31:51;;;;;;;;;;;;;;;2.84;80.24;99834.48;213575;1325;22604;-71
2021/12/18 17:36:54;;;;;;;;;;;;;;;2.84;80.26;99819.63;213489;1323;25371;-71
2021/12/18 17:41:56;;;;;;;;;;;;;;;2.83;80.27;99821.53;213308;1325;22594;-72
2021/12/18 17:46:58;;;;;;;;;;;;;;;2.83;80.41;99820.91;213627;1320;22567;-70
2021/12/18 17:52:04;;;;;;;;;;;;;;;2.84;80.33;99814.00;213146;1324;22610;-71
2021/12/18 17:57:06;;;;;;;;;;;;;;;2.84;80.57;99804.27;213420;1319;25462;-71
2021/12/18 18:02:09;;;;;;;;;;;;;;;2.86;80.65;99801.39;213464;1324;22570;-73
2021/12/18 18:07:11;;;;;;;;;;;;;;;2.90;80.58;99792.98;213077;1325;22574;-71
2021/12/18 18:12:23;;;;;;;;;;;;;;;2.96;80.59;99789.98;213252;1324;26336;-71
2021/12/18 18:17:25;;;;;;;;;;;;;;;3.00;80.46;99789.56;212198;1324;22567;-71
2021/12/18 18:22:27;;;;;;;;;;;;;;;3.00;80.45;99780.55;213298;1324;22615;-71
2021/12/18 18:27:29;;;;;;;;;;;;;;;3.00;80.45;99770.38;213458;1324;23036;-72
2021/12/18 18:32:32;;;;;;;;;;;;;;;3.02;80.56;99766.86;213428;1324;22583;-72
2021/12/18 18:37:35;;;;;;;;;;;;;;;3.04;80.48;99760.80;213997;1323;24461;-72
2021/12/18 18:42:42;;;;;;;;;;;;;;;3.09;80.70;99757.11;213829;1324;22619;-70
2021/12/18 18:47:56;;;;;;;;;;;;;;;3.16;80.82;99757.79;211997;1324;22703;-71
2021/12/18 18:53:04;;;;;;;;;;;;;;;3.27;80.86;99752.41;213426;1324;25692;-71
2021/12/18 18:58:07;;;;;;;;;;;;;;;3.37;80.93;99747.86;213730;1318;24430;-71
2021/12/18 19:03:09;;;;;;;;;;;;;;;3.41;80.94;99732.37;213616;1323;24313;-71
2021/12/18 19:08:16;;;;;;;;;;;;;;;3.46;80.99;99727.23;213639;1323;25445;-71
2021/12/18 19:13:19;;;;;;;;;;;;;;;3.48;80.98;99720.65;213385;1322;25458;-71
2021/12/18 19:18:22;;;;;;;;;;;;;;;3.48;80.94;99706.18;213304;1324;24353;-72
2021/12/18 19:23:32;;;;;;;;;;;;;;;3.52;81.07;99701.14;213589;1322;24333;-70
2021/12/18 19:28:35;;;;;;;;;;;;;;;3.51;81.25;99702.82;213747;1323;24842;-71
2021/12/18 19:33:37;;;;;;;;;;;;;;;3.52;81.27;99705.62;213362;1324;24401;-72
2021/12/18 19:38:40;;;;;;;;;;;;;;;3.54;81.38;99702.66;213327;1322;24256;-71
2021/12/18 19:43:42;;;;;;;;;;;;;;;3.53;81.42;99697.48;213577;1324;24692;-72
2021/12/18 19:49:05;;;;;;;;;;;;;;;3.53;81.72;99684.33;213753;1325;24298;-71
2021/12/18 19:54:12;;;;;;;;;;;;;;;3.53;81.86;99683.39;213193;1325;25423;-72
2021/12/18 19:59:13;;;;;;;;;;;;;;;3.54;81.90;99666.84;213334;1325;22674;-70
2021/12/18 20:04:31;;;;;;;;;;;;;;;3.53;82.16;99673.31;213742;1319;22622;-70
2021/12/18 20:09:43;;;;;;;;;;;;;;;3.56;82.31;99675.90;213683;1325;22579;-72
2021/12/18 20:14:46;;;;;;;;;;;;;;;3.59;82.40;99685.50;213451;1324;25457;-71
2021/12/18 20:20:01;;;;;;;;;;;;;;;3.64;82.50;99671.02;213107;1325;22755;-71
2021/12/18 20:25:04;;;;;;;;;;;;;;;3.64;82.55;99651.65;213192;1323;26017;-71
2021/12/18 20:30:08;;;;;;;;;;;;;;;3.69;82.67;99658.16;213456;1323;22716;-72
2021/12/18 20:35:15;;;;;;;;;;;;;;;3.72;82.67;99646.27;213628;1320;22886;-72
2021/12/18 20:40:20;;;;;;;;;;;;;;;3.76;82.72;99644.58;213527;1323;24353;-72
2021/12/18 20:45:24;;;;;;;;;;;;;;;3.78;82.79;99631.75;213475;1323;22794;-71
2021/12/18 20:50:26;;;;;;;;;;;;;;;3.80;82.98;99616.10;213846;1322;23758;-71
2021/12/18 20:55:31;;;;;;;;;;;;;;;3.85;83.16;99605.05;213957;1323;24264;-72
2021/12/18 21:00:34;;;;;;;;;;;;;;;3.89;83.29;99601.08;213864;1322;24255;-71
2021/12/18 21:05:37;;;;;;;;;;;;;;;3.95;83.53;99587.98;213786;1319;24305;-72
2021/12/18 21:10:40;;;;;;;;;;;;;;;4.03;84.04;99582.45;214337;1323;22707;-71
2021/12/18 21:15:45;;;;;;;;;;;;;;;4.12;84.32;99574.33;213980;1323;22603;-72
2021/12/18 21:20:47;;;;;;;;;;;;;;;4.21;84.60;99561.71;213768;1323;22697;-72
2021/12/18 21:25:50;;;;;;;;;;;;;;;4.28;84.76;99554.34;213748;1323;22583;-71
2021/12/18 21:30:53;;;;;;;;;;;;;;;4.33;84.70;99569.70;213433;1319;22740;-72
2021/12/18 21:41:43;;;;;;;;;;;;;;;4.41;85.24;99576.27;206111;1323;25331;-72
2021/12/18 21:46:45;;;;;;;;;;;;;;;4.43;84.96;99560.19;213897;1323;24279;-72
2021/12/18 21:51:48;;;;;;;;;;;;;;;4.47;84.88;99551.04;213888;1322;22490;-71
2021/12/18 21:56:50;;;;;;;;;;;;;;;4.49;84.66;99544.73;213880;1318;22558;-72
2021/12/18 22:01:52;;;;;;;;;;;;;;;4.51;84.38;99540.04;213442;1325;22607;-72
2021/12/18 22:06:55;;;;;;;;;;;;;;;4.53;84.24;99533.34;213547;1323;22500;-71
2021/12/18 22:11:57;;;;;;;;;;;;;;;4.55;84.06;99519.81;213814;1323;22559;-71
2021/12/18 22:17:02;;;;;;;;;;;;;;;4.57;84.04;99510.89;213613;1323;22545;-71
2021/12/18 22:22:06;;;;;;;;;;;;;;;4.58;83.95;99514.43;213835;1323;22688;-71
2021/12/18 22:27:09;;;;;;;;;;;;;;;4.60;83.88;99502.52;213624;1324;22545;-70
2021/12/18 22:32:13;;;;;;;;;;;;;;;4.61;83.63;99493.11;212569;1323;25496;-71
2021/12/18 22:37:16;;;;;;;;;;;;;;;4.62;83.78;99495.92;213607;1322;22570;-72
2021/12/18 22:42:21;;;;;;;;;;;;;;;4.60;83.57;99490.20;213403;1325;22613;-71
2021/12/18 22:47:31;;;;;;;;;;;;;;;4.56;83.51;99473.56;212930;1322;22618;-71
2021/12/18 22:52:37;;;;;;;;;;;;;;;4.54;83.47;99460.15;213386;1325;22628;-72
2021/12/18 22:57:40;;;;;;;;;;;;;;;4.52;83.35;99458.23;213433;1323;22621;-71
2021/12/18 23:02:42;;;;;;;;;;;;;;;4.52;83.51;99446.98;213528;1323;22685;-70
2021/12/18 23:07:45;;;;;;;;;;;;;;;4.49;83.22;99431.33;213692;1323;22561;-70
2021/12/18 23:19:03;;;;;;;;;;;;;;;4.41;83.30;99409.98;213543;1323;22560;-72
2021/12/18 23:24:57;;;;;;;;;;;;;;;4.42;83.29;99409.52;213536;1323;24465;-70
2021/12/18 23:30:02;;;;;;;;;;;;;;;4.46;83.48;99398.40;213280;1324;22568;-71
2021/12/18 23:35:06;;;;;;;;;;;;;;;4.48;83.26;99402.36;213674;1323;25224;-71
2021/12/18 23:40:11;;;;;;;;;;;;;;;4.49;83.33;99392.05;213904;1324;22572;-71
2021/12/18 23:50:35;;;;;;;;;;;;;;;4.53;83.09;99384.95;213770;1325;22573;-70
2021/12/18 23:55:37;;;;;;;;;;;;;;;4.55;82.98;99388.27;213777;1323;23039;-72
